Latest Coastal Weather Observations for Pirlangimpi (Garden Point)

IDD60701

Issued at 7:35 pm CST Saturday 30 August 2014 (issued every 10 minutes, with the page automatically refreshed every 10 minutes)

About coastal observations | Map of coastal stations | Coastal observations for NT | Marine services | Other Formats
Station Details ID: 014142 Name: PIRLANGIMPI AIRPORT Lat: -11.40 Lon: 130.42 Height: 18.3 m
Data from the previous 72 hours. | See also: Recent months at Pirlangimpi (Garden Point)
Date/Time
CST
Temp

°C
Wind Pressure Rain
since 9am
mm
Weather Cloud Vis
km
Sea
Height
m
Swell
Dir
 
Speed
knots
Gust
knots
hPa Trend Height
m
Period
s
Dir
30/07:30pm 23.9 N 3 5 1012.3 - 0.0 - - - - - - -
30/07:00pm 25.2 WNW 3 8 1012.1 - 0.0 - - - - - - -
30/06:30pm 26.1 W 3 8 1011.8 - 0.0 - - - - - - -
30/06:00pm 27.3 W 3 8 1011.4 - 0.0 - - - - - - -
30/05:30pm 29.0 W 3 6 1011.1 - 0.0 - - - - - - -
30/05:00pm 29.9 WNW 3 7 1010.9 - 0.0 - - - - - - -
30/04:30pm 30.5 WNW 4 8 1010.7 - 0.0 - - - - - - -
30/04:00pm 31.7 NNW 4 8 1010.6 - 0.0 - - - - - - -
30/03:30pm 33.8 E 4 9 1010.7 - 0.0 - - - - - - -
30/03:00pm 34.1 ENE 4 8 1010.8 - 0.0 - - - - - - -
30/02:30pm 32.2 S 8 11 1011.1 - 0.0 - - - - - - -
30/02:00pm 31.9 S 6 10 1011.5 - 0.0 - - - - - - -
30/01:30pm 31.4 SW 8 15 1012.0 - 0.0 - - - - - - -
30/01:00pm 31.6 SW 5 11 1012.6 - 0.0 - - - - - - -
30/12:30pm 32.1 S 4 8 1013.0 - 0.0 - - - - - - -
30/12:00pm 32.3 ESE 5 8 1013.8 - 0.0 - - - - - - -
30/11:30am 30.9 ESE 6 10 1014.5 - 0.0 - - - - - - -
30/11:00am 30.1 ESE 7 12 1015.2 - 0.0 - - - - - - -
30/10:30am 29.9 E 4 9 1015.5 - 0.0 - - - - - - -
30/10:00am 27.8 S 4 6 1015.7 - 0.0 - - - - - - -
30/09:30am 25.8 S 3 5 1015.6 - 0.0 - - - - - - -
30/09:00am 24.0 SSE 2 2 1015.6 - 0.0 - - - - - - -
30/08:30am 20.7 SE 2 3 1015.5 - 0.0 - - - - - - -
30/08:00am 19.0 SSE 2 3 1015.3 - 0.0 - - - - - - -
30/07:30am 17.5 SE 2 3 1015.0 - 0.0 - - - - - - -
30/07:00am 15.7 E 2 3 1014.9 - 0.0 - - - - - - -
30/06:30am 15.6 ENE 2 2 1014.6 - 0.0 - - - - - - -
30/06:00am 16.8 ESE 2 2 1014.3 - 0.0 - - - - - - -
30/05:30am 15.9 SSE 2 3 1014.1 - 0.0 - - - - - - -
30/05:00am 16.3 CALM 0 2 1013.9 - 0.0 - - - - - - -
30/04:30am 16.4 CALM 0 0 1013.8 - 0.0 - - - - - - -
30/04:00am 16.5 CALM 0 0 1013.8 - 0.0 - - - - - - -
30/03:30am 17.2 NE 1 2 1013.6 - 0.0 - - - - - - -
30/03:00am 17.6 CALM 0 0 1013.7 - 0.0 - - - - - - -
30/02:30am 18.0 CALM 0 0 1013.8 - 0.0 - - - - - - -
30/02:00am 18.4 SE 0 1 1014.0 - 0.0 - - - - - - -
30/01:30am 17.8 CALM 0 0 1014.3 - 0.0 - - - - - - -
30/01:00am 17.4 CALM 0 0 1014.5 - 0.0 - - - - - - -
30/12:30am 17.5 CALM 0 0 1014.6 - 0.0 - - - - - - -
30/12:00am 17.7 ENE 0 0 1014.4 - 0.0 - - - - - - -
 
Date/Time
CST
Temp

°C
Wind Pressure Rain
since 9am
mm
Weather Cloud Vis
km
Sea
Height
m
Swell
Dir
 
Speed
knots
Gust
knots
hPa Trend Height
m
Period
s
Dir
29/11:30pm 17.7 CALM 0 0 1014.5 - 0.0 - - - - - - -
29/11:00pm 18.1 CALM 0 0 1014.4 - 0.0 - - - - - - -
29/10:30pm 18.6 CALM 0 0 1014.3 - 0.0 - - - - - - -
29/10:00pm 19.3 CALM 0 0 1014.3 - 0.0 - - - - - - -
29/09:30pm 19.6 CALM 0 0 1014.1 - 0.0 - - - - - - -
29/09:00pm 20.3 CALM 0 0 1013.9 - 0.0 - - - - - - -
29/08:30pm 21.0 NE 1 2 1013.6 - 0.0 - - - - - - -
29/08:00pm 22.2 NE 1 2 1013.4 - 0.0 - - - - - - -
29/07:30pm 22.8 NE 2 5 1013.1 - 0.0 - - - - - - -
29/07:00pm 24.0 WNW 1 2 1012.7 - 0.0 - - - - - - -
29/06:30pm 25.6 WNW 1 2 1012.5 - 0.0 - - - - - - -
29/06:00pm 26.8 NW 2 4 1012.3 - 0.0 - - - - - - -
29/05:30pm 28.4 NW 4 7 1012.1 - 0.0 - - - - - - -
29/05:00pm 29.4 NW 4 7 1012.1 - 0.0 - - - - - - -
29/04:30pm 29.9 WNW 5 7 1012.1 - 0.0 - - - - - - -
29/04:00pm 30.5 NW 6 11 1012.2 - 0.0 - - - - - - -
29/03:30pm 32.1 S 5 8 1012.2 - 0.0 - - - - - - -
29/03:00pm 32.2 SSW 6 9 1012.2 - 0.0 - - - - - - -
29/02:30pm 33.1 E 4 9 1012.3 - 0.0 - - - - - - -
29/02:00pm 32.9 ENE 3 10 1012.5 - 0.0 - - - - - - -
29/01:30pm 32.2 SE 7 13 1012.8 - 0.0 - - - - - - -
29/01:00pm 32.8 SE 5 10 1013.3 - 0.0 - - - - - - -
29/12:30pm 32.5 E 6 12 1013.8 - 0.0 - - - - - - -
29/12:00pm 31.7 SE 8 15 1014.2 - 0.0 - - - - - - -
29/11:30am 30.8 E 11 14 1014.6 - 0.0 - - - - - - -
29/11:00am 30.1 ESE 7 12 1015.0 - 0.0 - - - - - - -
29/10:30am 29.2 SE 7 9 1015.4 - 0.0 - - - - - - -
29/10:00am 27.0 S 4 6 1015.6 - 0.0 - - - - - - -
29/09:30am 25.6 SSE 3 5 1015.6 - 0.0 - - - - - - -
29/09:00am 24.3 SE 2 4 1015.7 - 0.0 - - - - - - -
29/08:30am 21.4 SSE 2 3 1015.7 - 0.0 - - - - - - -
29/08:00am 19.3 S 2 3 1015.4 - 0.0 - - - - - - -
29/07:30am 17.4 SSE 1 2 1015.1 - 0.0 - - - - - - -
29/07:00am 17.0 SSE 2 2 1014.7 - 0.0 - - - - - - -
29/06:30am 16.7 ESE 2 3 1014.4 - 0.0 - - - - - - -
29/06:00am 16.8 SE 2 2 1014.2 - 0.0 - - - - - - -
29/05:30am 17.0 ESE 2 4 1013.9 - 0.0 - - - - - - -
29/05:00am 16.9 E 2 2 1013.8 - 0.0 - - - - - - -
29/04:30am 17.2 CALM 0 1 1013.7 - 0.0 - - - - - - -
29/04:00am 17.7 S 1 2 1013.6 - 0.0 - - - - - - -
29/03:30am 18.6 SSE 2 2 1013.6 - 0.0 - - - - - - -
29/03:00am 18.8 SE 3 4 1013.6 - 0.0 - - - - - - -
29/02:30am 17.8 SE 2 3 1013.6 - 0.0 - - - - - - -
29/02:00am 18.2 SE 2 3 1013.7 - 0.0 - - - - - - -
29/01:30am 18.9 SSE 2 3 1013.8 - 0.0 - - - - - - -
29/01:00am 18.2 CALM 0 0 1013.9 - 0.0 - - - - - - -
29/12:30am 18.7 CALM 0 0 1013.9 - 0.0 - - - - - - -
29/12:00am 18.9 CALM 0 1 1014.1 - 0.0 - - - - - - -
 
Date/Time
CST
Temp

°C
Wind Pressure Rain
since 9am
mm
Weather Cloud Vis
km
Sea
Height
m
Swell
Dir
 
Speed
knots
Gust
knots
hPa Trend Height
m
Period
s
Dir
28/11:30pm 18.8 CALM 0 0 1014.1 - 0.0 - - - - - - -
28/11:00pm 18.3 CALM 0 2 1014.1 - 0.0 - - - - - - -
28/10:30pm 19.0 CALM 0 0 1014.0 - 0.0 - - - - - - -
28/10:00pm 20.1 CALM 0 0 1014.0 - 0.0 - - - - - - -
28/09:30pm 21.3 CALM 0 0 1014.0 - 0.0 - - - - - - -
28/09:00pm 22.1 NE 2 5 1013.8 - 0.0 - - - - - - -
28/08:30pm 21.7 NE 3 5 1013.6 - 0.0 - - - - - - -
28/08:00pm 21.8 NE 3 4 1013.4 - 0.0 - - - - - - -
28/07:30pm 22.4 ENE 4 6 1013.2 - 0.0 - - - - - - -
28/07:00pm 23.7 ENE 4 6 1013.0 - 0.0 - - - - - - -
28/06:30pm 25.5 NE 6 11 1012.7 - 0.0 - - - - - - -
28/06:00pm 27.0 ENE 8 12 1012.3 - 0.0 - - - - - - -
28/05:30pm 28.8 ENE 9 14 1012.0 - 0.0 - - - - - - -
28/05:00pm 30.4 ENE 7 10 1011.8 - 0.0 - - - - - - -
28/04:30pm 30.2 E 8 12 1011.5 - 0.0 - - - - - - -
28/04:00pm 32.8 ENE 8 13 1011.2 - 0.0 - - - - - - -
28/03:30pm 33.2 E 9 13 1011.2 - 0.0 - - - - - - -
28/03:00pm 33.0 E 10 16 1011.3 - 0.0 - - - - - - -
28/02:30pm 32.4 E 7 12 1011.7 - 0.0 - - - - - - -
28/02:00pm 32.9 ESE 9 14 1012.1 - 0.0 - - - - - - -
28/01:30pm 34.4 E 6 11 1012.3 - 0.0 - - - - - - -
28/01:00pm 32.6 ESE 7 12 1012.7 - 0.0 - - - - - - -
28/12:30pm 31.4 ESE 10 15 1013.5 - 0.0 - - - - - - -
28/12:00pm 31.4 ESE 8 16 1013.9 - 0.0 - - - - - - -
28/11:30am 30.3 ESE 10 13 1014.3 - 0.0 - - - - - - -
28/11:00am 29.8 ESE 9 16 1014.7 - 0.0 - - - - - - -
28/10:30am 28.2 E 10 14 1014.9 - 0.0 - - - - - - -
28/10:00am 28.1 ESE 7 11 1015.2 - 0.0 - - - - - - -
28/09:30am 26.3 SE 5 11 1015.1 - 0.0 - - - - - - -
28/09:00am 23.5 SSE 3 5 1015.1 - 0.0 - - - - - - -
28/08:30am 21.1 SSE 2 3 1015.0 - 0.0 - - - - - - -
28/08:00am 19.2 SE 2 3 1014.7 - 0.0 - - - - - - -
28/07:30am 16.5 NE 1 2 1014.5 - 0.0 - - - - - - -
28/07:00am 16.1 CALM 0 0 1014.1 - 0.0 - - - - - - -
28/06:30am 16.6 CALM 0 0 1013.9 - 0.0 - - - - - - -
28/06:00am 17.1 SE 1 1 1013.7 - 0.0 - - - - - - -
28/05:30am 18.1 SSE 2 3 1013.5 - 0.0 - - - - - - -
28/05:00am 18.6 SSE 3 4 1013.5 - 0.0 - - - - - - -
28/04:30am 18.1 SSE 2 2 1013.3 - 0.0 - - - - - - -
28/04:00am 19.6 SE 2 4 1013.2 - 0.0 - - - - - - -
28/03:30am 19.7 SE 3 4 1013.2 - 0.0 - - - - - - -
28/03:00am 19.7 SE 3 4 1013.2 - 0.0 - - - - - - -
28/02:30am 19.9 SE 3 4 1013.2 - 0.0 - - - - - - -
28/02:00am 20.2 SSE 2 3 1013.4 - 0.0 - - - - - - -
28/01:30am 20.4 SSE 2 3 1013.6 - 0.0 - - - - - - -
28/01:00am 21.6 S 3 5 1013.8 - 0.0 - - - - - - -
28/12:30am 22.6 SE 4 6 1013.9 - 0.0 - - - - - - -
28/12:00am 22.2 ENE 6 8 1013.7 - 0.0 - - - - - - -
 
Date/Time
CST
Temp

°C
Wind Pressure Rain
since 9am
mm
Weather Cloud Vis
km
Sea
Height
m
Swell
Dir
 
Speed
knots
Gust
knots
hPa Trend Height
m
Period
s
Dir
27/11:30pm 22.6 NE 6 8 1013.7 - 0.0 - - - - - - -
27/11:00pm 22.9 ENE 7 10 1013.7 - 0.0 - - - - - - -
27/10:30pm 23.0 ENE 8 11 1013.6 - 0.0 - - - - - - -
27/10:00pm 22.6 NE 5 10 1013.5 - 0.0 - - - - - - -
27/09:30pm 22.7 ENE 6 9 1013.4 - 0.0 - - - - - - -
27/09:00pm 22.7 ENE 5 9 1013.1 - 0.0 - - - - - - -
27/08:30pm 22.8 NE 4 6 1013.0 - 0.0 - - - - - - -
27/08:00pm 22.5 NE 3 5 1012.7 - 0.0 - - - - - - -

Other Formats:

Comma delimited format used in spreadsheet applications
http://www.bom.gov.au/fwo/IDD60701/IDD60701.94119.axf

JavaScript Object Notation format (JSON) in row-major order
http://www.bom.gov.au/fwo/IDD60701/IDD60701.94119.json